createdAt,value
2019-01-21T00:02:13.976Z,10.03
2019-01-21T00:04:46.572Z,10.47
2019-01-21T00:07:17.946Z,9.93
2019-01-21T00:09:49.212Z,10.40
2019-01-21T00:12:20.279Z,10.13
2019-01-21T00:14:51.520Z,11.03
2019-01-21T00:17:22.749Z,9.97
2019-01-21T00:19:54.016Z,10.73
2019-01-21T00:22:25.079Z,10.10
2019-01-21T00:24:56.417Z,11.43
2019-01-21T00:27:27.644Z,10.67
2019-01-21T00:29:59.215Z,11.43
2019-01-21T00:32:30.279Z,11.27
2019-01-21T00:35:01.615Z,9.40
2019-01-21T00:37:33.060Z,10.07
2019-01-21T00:40:05.256Z,11.03
2019-01-21T00:42:36.767Z,11.30
2019-01-21T00:45:08.348Z,10.23
2019-01-21T00:47:39.675Z,11.07
2019-01-21T00:50:11.168Z,10.77
2019-01-21T00:52:42.547Z,10.70
2019-01-21T00:55:14.286Z,9.43
2019-01-21T00:57:45.649Z,9.33
2019-01-21T01:00:19.798Z,10.13
2019-01-21T01:02:51.551Z,11.47
2019-01-21T01:05:23.489Z,11.97
2019-01-21T01:07:55.150Z,11.43
2019-01-21T01:10:26.215Z,9.60
2019-01-21T01:12:57.528Z,10.30
2019-01-21T01:15:28.887Z,10.87
2019-01-21T01:18:00.191Z,10.60
2019-01-21T01:20:31.500Z,11.60
2019-01-21T01:23:02.899Z,11.43
2019-01-21T01:25:33.903Z,10.40
2019-01-21T01:28:05.291Z,10.40
2019-01-21T01:30:36.691Z,11.90
2019-01-21T01:33:08.015Z,12.07
2019-01-21T01:35:39.335Z,13.07
2019-01-21T01:38:10.659Z,12.10
2019-01-21T01:40:42.067Z,10.93
2019-01-21T01:43:13.380Z,11.07
2019-01-21T01:45:44.628Z,11.90
2019-01-21T01:48:16.008Z,10.90
2019-01-21T01:50:47.428Z,11.30
2019-01-21T01:53:18.819Z,12.33
2019-01-21T01:55:52.287Z,11.80
2019-01-21T01:58:24.298Z,11.10
2019-01-21T02:00:56.760Z,11.87
2019-01-21T02:03:28.379Z,12.23
2019-01-21T02:06:00.265Z,10.67
2019-01-21T02:08:36.972Z,12.00
2019-01-21T02:11:08.776Z,11.27
2019-01-21T02:13:39.971Z,12.60
2019-01-21T02:16:11.972Z,12.60
2019-01-21T02:18:42.987Z,12.07
2019-01-21T02:21:14.399Z,11.50
2019-01-21T02:23:48.540Z,11.93
2019-01-21T02:26:22.415Z,12.90
2019-01-21T02:29:08.757Z,11.13
2019-01-21T02:32:24.132Z,11.43
2019-01-21T02:35:25.968Z,11.80
2019-01-21T02:38:34.754Z,11.13
2019-01-21T02:41:36.851Z,11.53
2019-01-21T02:44:32.211Z,10.53
2019-01-21T02:47:24.603Z,9.20
2019-01-21T02:50:26.416Z,10.57
2019-01-21T02:53:13.647Z,11.00
2019-01-21T02:56:28.147Z,11.03
2019-01-21T02:59:23.575Z,11.27
2019-01-21T03:02:55.369Z,10.00
2019-01-21T03:06:07.107Z,11.23
2019-01-21T03:09:06.924Z,10.30
2019-01-21T03:12:16.890Z,11.43
2019-01-21T03:15:33.172Z,10.37
2019-01-21T03:18:29.048Z,11.53
2019-01-21T03:21:28.416Z,11.57
2019-01-21T03:24:29.253Z,12.53
2019-01-21T03:27:28.881Z,12.83
2019-01-21T03:30:35.189Z,11.20
2019-01-21T03:33:43.857Z,11.17
2019-01-21T03:36:42.247Z,11.43
2019-01-21T03:40:04.146Z,11.33
2019-01-21T03:42:55.144Z,11.30
2019-01-21T03:46:15.460Z,11.80
2019-01-21T03:49:01.861Z,11.57
2019-01-21T03:52:13.267Z,12.53
2019-01-21T03:54:52.231Z,13.27
2019-01-21T03:57:52.008Z,12.47
2019-01-21T04:00:35.825Z,11.60
2019-01-21T04:04:09.525Z,10.63
2019-01-21T04:06:55.104Z,13.00
2019-01-21T04:10:17.007Z,12.53
2019-01-21T04:13:32.028Z,10.97
2019-01-21T04:16:36.319Z,12.87
2019-01-21T04:19:44.247Z,11.83
2019-01-21T04:22:45.004Z,11.87
2019-01-21T04:25:54.704Z,11.50
2019-01-21T04:28:37.511Z,12.13
2019-01-21T04:31:47.209Z,12.47
2019-01-21T04:34:36.663Z,12.50
2019-01-21T04:37:53.265Z,11.20
2019-01-21T04:41:03.019Z,12.80
2019-01-21T04:44:25.053Z,13.50
2019-01-21T04:47:44.868Z,12.13
2019-01-21T04:50:29.042Z,12.27
2019-01-21T04:53:39.396Z,12.13
2019-01-21T04:56:44.761Z,12.27
2019-01-21T04:59:29.897Z,12.03
2019-01-21T05:02:26.423Z,11.60
2019-01-21T05:05:21.129Z,11.80
2019-01-21T05:08:26.011Z,12.67
2019-01-21T05:11:26.195Z,12.63
2019-01-21T05:14:37.908Z,12.27
2019-01-21T05:17:53.561Z,13.00
2019-01-21T05:21:11.617Z,12.73
2019-01-21T05:24:21.860Z,13.37
2019-01-21T05:27:28.966Z,11.93
2019-01-21T05:30:33.915Z,13.33
2019-01-21T05:33:32.933Z,12.50
2019-01-21T05:36:32.701Z,13.10
2019-01-21T05:39:32.379Z,12.90
2019-01-21T05:42:33.798Z,14.47
2019-01-21T05:45:33.509Z,12.40
2019-01-21T05:48:38.279Z,13.37
2019-01-21T05:51:53.182Z,13.03
2019-01-21T05:54:59.608Z,13.93
2019-01-21T05:57:56.363Z,13.60
2019-01-21T06:00:56.515Z,13.80
2019-01-21T06:03:47.266Z,14.33
2019-01-21T06:06:52.809Z,12.87
2019-01-21T06:10:04.836Z,13.57
2019-01-21T06:13:29.332Z,13.03
2019-01-21T06:16:48.392Z,13.20
2019-01-21T06:20:10.350Z,14.07
2019-01-21T06:23:13.685Z,14.67
2019-01-21T06:26:01.653Z,14.33
2019-01-21T06:29:08.219Z,13.60
2019-01-21T06:32:26.536Z,13.07
2019-01-21T06:35:51.412Z,13.77
2019-01-21T06:38:48.086Z,13.10
2019-01-21T06:41:43.443Z,12.73
2019-01-21T06:45:01.697Z,14.07
2019-01-21T06:48:32.421Z,13.83
2019-01-21T06:51:43.423Z,13.60
2019-01-21T06:54:50.080Z,14.03
2019-01-21T06:57:52.359Z,13.03
2019-01-21T07:01:09.263Z,14.43
2019-01-21T07:04:12.196Z,14.50
2019-01-21T07:07:27.444Z,14.63
2019-01-21T07:10:23.087Z,13.37
2019-01-21T07:13:53.759Z,14.27
2019-01-21T07:17:08.739Z,13.13
2019-01-21T07:20:11.061Z,14.00
2019-01-21T07:23:22.503Z,12.93
2019-01-21T07:26:11.532Z,15.13
2019-01-21T07:28:57.611Z,13.67
2019-01-21T07:31:46.107Z,13.87
2019-01-21T07:35:07.719Z,15.80
2019-01-21T07:38:23.120Z,16.73
2019-01-21T07:41:30.464Z,16.80
2019-01-21T07:44:27.775Z,15.50
2019-01-21T07:47:33.443Z,14.40
2019-01-21T07:50:26.565Z,15.77
2019-01-21T07:53:57.271Z,17.00
2019-01-21T07:57:08.635Z,14.97
2019-01-21T08:00:12.515Z,14.23
2019-01-21T08:03:20.043Z,15.53
2019-01-21T08:06:23.969Z,14.23
2019-01-21T08:09:25.776Z,13.90
2019-01-21T08:12:30.703Z,15.53
2019-01-21T08:15:26.281Z,13.00
2019-01-21T08:18:53.947Z,13.70
2019-01-21T08:21:33.445Z,15.20
2019-01-21T08:24:43.055Z,14.80
2019-01-21T08:27:49.846Z,14.17
2019-01-21T08:31:01.721Z,14.53
2019-01-21T08:34:01.376Z,13.90
2019-01-21T08:37:11.583Z,13.87
2019-01-21T08:40:12.620Z,14.13
2019-01-21T08:43:16.956Z,14.97
2019-01-21T08:46:02.783Z,14.00
2019-01-21T08:49:11.435Z,15.20
2019-01-21T08:51:55.609Z,15.03
2019-01-21T08:54:58.823Z,15.57
2019-01-21T08:58:13.047Z,14.10
2019-01-21T09:01:14.731Z,15.97
2019-01-21T09:05:09.747Z,15.37
2019-01-21T09:08:17.022Z,16.27
2019-01-21T09:10:55.885Z,15.40
2019-01-21T09:13:49.671Z,15.47
2019-01-21T09:17:02.880Z,18.03
2019-01-21T09:20:03.482Z,16.70
2019-01-21T09:22:51.172Z,15.93
2019-01-21T09:25:41.532Z,17.33
2019-01-21T09:28:46.079Z,18.53
2019-01-21T09:31:54.755Z,16.73
2019-01-21T09:34:57.139Z,16.80
2019-01-21T09:38:01.580Z,16.40
2019-01-21T09:41:17.315Z,17.60
2019-01-21T09:44:00.370Z,18.00
2019-01-21T09:46:56.008Z,20.20
2019-01-21T09:49:25.667Z,22.10
2019-01-21T09:52:07.911Z,20.37
2019-01-21T09:54:40.611Z,20.73
2019-01-21T09:57:20.588Z,20.47
2019-01-21T09:59:54.100Z,21.43
2019-01-21T10:02:37.332Z,21.77
2019-01-21T10:05:15.036Z,22.97
2019-01-21T10:08:10.763Z,22.63
2019-01-21T10:11:12.947Z,23.17
2019-01-21T10:14:16.131Z,23.40
2019-01-21T10:17:26.267Z,24.70
2019-01-21T10:20:28.355Z,21.20
2019-01-21T10:23:32.029Z,22.40
2019-01-21T10:26:33.410Z,24.37
2019-01-21T10:29:27.328Z,24.07
2019-01-21T10:32:33.099Z,22.60
2019-01-21T10:35:24.575Z,23.70
2019-01-21T10:38:49.335Z,22.70
2019-01-21T10:41:27.831Z,23.73
2019-01-21T10:44:30.877Z,23.73
2019-01-21T10:47:30.527Z,23.87
2019-01-21T10:50:34.612Z,23.27
2019-01-21T10:53:42.872Z,24.90
2019-01-21T10:56:41.531Z,23.17
2019-01-21T10:59:34.079Z,24.50
2019-01-21T11:03:13.815Z,23.30
2019-01-21T11:05:59.452Z,23.30
2019-01-21T11:08:41.548Z,22.03
2019-01-21T11:11:40.199Z,23.07
2019-01-21T11:14:44.707Z,21.67
2019-01-21T11:17:30.735Z,21.23
2019-01-21T11:20:54.935Z,22.57
2019-01-21T11:24:02.309Z,20.97
2019-01-21T11:26:59.547Z,19.27
2019-01-21T11:29:58.092Z,20.57
2019-01-21T11:32:57.544Z,19.77
2019-01-21T11:35:51.991Z,18.33
2019-01-21T11:38:57.396Z,19.77
2019-01-21T11:41:46.468Z,19.03
2019-01-21T11:44:59.323Z,19.07
2019-01-21T11:47:55.143Z,19.60
2019-01-21T11:50:41.190Z,19.93
2019-01-21T11:53:41.876Z,18.43
2019-01-21T11:56:32.511Z,17.47
2019-01-21T11:59:44.344Z,18.47
2019-01-21T12:03:04.756Z,17.47
2019-01-21T12:06:01.028Z,22.67
2019-01-21T12:09:00.602Z,18.97
2019-01-21T12:12:38.055Z,19.27
2019-01-21T12:15:50.415Z,20.10
2019-01-21T12:18:46.063Z,19.07
2019-01-21T12:21:44.955Z,17.90
2019-01-21T12:24:26.176Z,20.43
2019-01-21T12:27:38.930Z,18.73
2019-01-21T12:30:37.123Z,17.03
2019-01-21T12:33:48.344Z,16.80
2019-01-21T12:36:51.886Z,16.83
2019-01-21T12:39:51.228Z,18.03
2019-01-21T12:42:47.552Z,17.53
2019-01-21T12:45:56.022Z,15.13
2019-01-21T12:49:18.248Z,15.80
2019-01-21T12:52:10.628Z,17.67
2019-01-21T12:55:01.880Z,16.03
2019-01-21T12:58:00.450Z,16.03
2019-01-21T13:00:55.057Z,16.57
2019-01-21T13:04:02.300Z,15.03
2019-01-21T13:07:13.937Z,15.90
2019-01-21T13:10:26.256Z,16.27
2019-01-21T13:13:21.458Z,17.23
2019-01-21T13:16:39.728Z,15.43
2019-01-21T13:19:45.917Z,15.40
2019-01-21T13:22:43.217Z,16.07
2019-01-21T13:26:09.554Z,15.77
2019-01-21T13:29:13.892Z,14.57
2019-01-21T13:32:41.465Z,16.00
2019-01-21T13:36:00.137Z,14.67
2019-01-21T13:39:27.765Z,15.37
2019-01-21T13:42:13.716Z,15.57
2019-01-21T13:45:07.172Z,15.07
2019-01-21T13:48:14.131Z,14.60
2019-01-21T13:51:13.492Z,14.57
2019-01-21T13:54:36.490Z,15.50
2019-01-21T13:58:05.888Z,15.47
2019-01-21T14:01:14.224Z,15.67
2019-01-21T14:04:09.044Z,15.47
2019-01-21T14:07:11.325Z,15.97
2019-01-21T14:09:57.112Z,15.93
2019-01-21T14:12:47.355Z,15.23
2019-01-21T14:16:09.195Z,14.63
2019-01-21T14:19:26.284Z,16.20
2019-01-21T14:22:47.697Z,15.70
2019-01-21T14:25:50.116Z,14.93
2019-01-21T14:28:40.419Z,14.87
2019-01-21T14:31:36.202Z,15.97
2019-01-21T14:34:50.477Z,14.97
2019-01-21T14:37:37.347Z,15.67
2019-01-21T14:40:35.016Z,16.13
2019-01-21T14:43:53.348Z,15.57
2019-01-21T14:47:05.679Z,16.43
2019-01-21T14:49:54.725Z,15.77
2019-01-21T14:52:49.827Z,15.43
2019-01-21T14:55:43.736Z,16.40
2019-01-21T14:58:56.131Z,16.73
2019-01-21T15:01:59.113Z,16.00
2019-01-21T15:05:07.626Z,16.00
2019-01-21T15:08:03.248Z,17.50
2019-01-21T15:10:47.507Z,14.87
2019-01-21T15:14:15.331Z,18.82
2019-01-21T15:17:17.876Z,16.00
2019-01-21T15:20:05.771Z,18.33
2019-01-21T15:23:23.232Z,18.23
2019-01-21T15:26:30.017Z,18.73
2019-01-21T15:29:47.740Z,17.40
2019-01-21T15:32:31.512Z,16.97
2019-01-21T15:35:43.245Z,17.00
2019-01-21T15:39:02.073Z,17.07
2019-01-21T15:42:06.047Z,16.87
2019-01-21T15:45:16.750Z,16.23
2019-01-21T15:48:24.835Z,16.63
2019-01-21T15:51:30.901Z,16.40
2019-01-21T15:54:41.599Z,18.67
2019-01-21T15:57:37.481Z,16.73
2019-01-21T16:00:39.654Z,17.07
2019-01-21T16:03:37.460Z,17.87
2019-01-21T16:06:35.807Z,18.13
2019-01-21T16:09:23.667Z,17.27
2019-01-21T16:12:13.131Z,16.97
2019-01-21T16:14:52.160Z,17.83
2019-01-21T16:17:47.296Z,18.13
2019-01-21T16:20:25.933Z,17.60
2019-01-21T16:23:41.590Z,18.27
2019-01-21T16:26:33.341Z,18.60
2019-01-21T16:29:21.749Z,19.60
2019-01-21T16:32:05.875Z,17.90
2019-01-21T16:35:21.771Z,20.07
2019-01-21T16:38:33.983Z,20.33
2019-01-21T16:41:23.924Z,19.73
2019-01-21T16:43:55.224Z,21.33
2019-01-21T16:46:26.596Z,19.00
2019-01-21T16:48:57.971Z,19.47
2019-01-21T16:51:29.047Z,19.30
2019-01-21T16:54:00.558Z,19.07
2019-01-21T16:56:32.166Z,20.27
2019-01-21T16:59:03.543Z,19.87
2019-01-21T17:01:34.800Z,20.67
2019-01-21T17:04:06.168Z,20.20
2019-01-21T17:06:37.560Z,20.07
2019-01-21T17:09:10.780Z,19.10
2019-01-21T17:11:42.031Z,19.90
2019-01-21T17:14:13.263Z,19.53
2019-01-21T17:16:44.596Z,20.17
2019-01-21T17:19:15.722Z,19.97
2019-01-21T17:21:47.037Z,19.67
2019-01-21T17:24:18.248Z,18.80
2019-01-21T17:26:49.757Z,18.60
2019-01-21T17:29:21.076Z,18.67
2019-01-21T17:31:53.949Z,20.63
2019-01-21T17:34:24.944Z,18.50
2019-01-21T17:36:56.309Z,18.37
2019-01-21T17:39:27.715Z,19.33
2019-01-21T17:41:59.068Z,17.40
2019-01-21T17:44:30.293Z,23.73
2019-01-21T17:47:01.776Z,19.83
2019-01-21T17:49:32.747Z,17.50
2019-01-21T17:52:04.227Z,18.00
2019-01-21T17:54:36.723Z,17.40
2019-01-21T17:57:07.933Z,18.63
2019-01-21T17:59:39.230Z,18.73
2019-01-21T18:02:10.603Z,18.90
2019-01-21T18:04:42.152Z,18.53
2019-01-21T18:07:13.547Z,17.53
2019-01-21T18:09:44.652Z,18.83
2019-01-21T18:12:16.207Z,18.30
2019-01-21T18:14:47.708Z,18.27
2019-01-21T18:17:19.222Z,16.87
2019-01-21T18:19:51.363Z,16.97
2019-01-21T18:22:22.975Z,17.83
2019-01-21T18:24:56.412Z,17.53
2019-01-21T18:27:28.039Z,17.37
2019-01-21T18:29:59.396Z,16.47
2019-01-21T18:32:31.552Z,18.03
2019-01-21T18:35:02.972Z,18.53
2019-01-21T18:37:34.511Z,18.43
2019-01-21T18:40:07.759Z,17.70
2019-01-21T18:42:39.115Z,18.17
2019-01-21T18:45:11.397Z,18.03
2019-01-21T18:47:42.579Z,17.73
2019-01-21T18:50:14.147Z,17.37
2019-01-21T18:52:45.359Z,18.77
2019-01-21T18:55:17.395Z,18.00
2019-01-21T18:57:48.983Z,17.20
2019-01-21T19:00:22.631Z,17.60
2019-01-21T19:02:54.059Z,18.10
2019-01-21T19:05:25.388Z,17.73
2019-01-21T19:07:56.777Z,17.23
2019-01-21T19:10:27.983Z,19.30
2019-01-21T19:12:59.795Z,18.00
2019-01-21T19:15:32.439Z,18.53
2019-01-21T19:18:04.850Z,17.50
2019-01-21T19:20:36.576Z,19.43
2019-01-21T19:23:07.576Z,18.53
2019-01-21T19:25:38.875Z,19.47
2019-01-21T19:28:10.180Z,20.00
2019-01-21T19:30:41.362Z,20.90
2019-01-21T19:33:12.498Z,19.83
2019-01-21T19:35:43.468Z,18.93
2019-01-21T19:38:14.862Z,20.07
2019-01-21T19:40:46.107Z,18.50
2019-01-21T19:43:18.304Z,19.57
2019-01-21T19:45:49.685Z,18.20
2019-01-21T19:48:21.019Z,19.30
2019-01-21T19:50:52.139Z,19.27
2019-01-21T19:53:23.467Z,19.70
2019-01-21T19:55:54.618Z,19.20
2019-01-21T19:58:25.967Z,20.10
2019-01-21T20:00:57.267Z,20.43
2019-01-21T20:03:28.339Z,22.17
2019-01-21T20:05:59.454Z,20.60
2019-01-21T20:08:30.667Z,21.43
2019-01-21T20:11:01.707Z,19.33
2019-01-21T20:13:33.003Z,19.17
2019-01-21T20:16:04.234Z,19.60
2019-01-21T20:18:35.338Z,19.37
2019-01-21T20:21:06.304Z,21.30
2019-01-21T20:23:37.642Z,18.33
2019-01-21T20:26:09.044Z,21.07
2019-01-21T20:28:40.368Z,19.10
2019-01-21T20:31:11.671Z,20.17
2019-01-21T20:33:43.008Z,20.60
2019-01-21T20:36:14.227Z,21.40
2019-01-21T20:38:45.482Z,19.37
2019-01-21T20:41:16.607Z,20.63
2019-01-21T20:43:47.879Z,20.37
2019-01-21T20:46:19.233Z,20.63
2019-01-21T20:48:50.652Z,19.93
2019-01-21T20:51:21.711Z,20.23
2019-01-21T20:53:52.970Z,19.87
2019-01-21T20:56:24.299Z,20.83
2019-01-21T20:58:55.870Z,20.73
2019-01-21T21:01:27.047Z,20.00
2019-01-21T21:03:58.188Z,20.90
2019-01-21T21:06:30.652Z,21.20
2019-01-21T21:09:02.496Z,23.43
2019-01-21T21:11:33.571Z,20.67
2019-01-21T21:14:04.902Z,22.30
2019-01-21T21:16:36.163Z,22.43
2019-01-21T21:19:07.161Z,21.63
2019-01-21T21:21:40.565Z,20.57
2019-01-21T21:24:11.843Z,21.07
2019-01-21T21:26:43.175Z,21.47
2019-01-21T21:29:14.502Z,20.90
2019-01-21T21:31:45.763Z,21.03
2019-01-21T21:34:17.356Z,20.77
2019-01-21T21:36:48.596Z,21.33
2019-01-21T21:39:20.360Z,23.70
2019-01-21T21:41:51.660Z,22.73
2019-01-21T21:44:22.990Z,20.90
2019-01-21T21:46:54.292Z,21.30
2019-01-21T21:49:25.684Z,19.93
2019-01-21T21:51:57.231Z,28.63
2019-01-21T21:54:28.991Z,24.37
2019-01-21T21:57:00.781Z,21.67
2019-01-21T21:59:32.395Z,22.00
2019-01-21T22:02:04.058Z,20.63
2019-01-21T22:04:35.383Z,22.13
2019-01-21T22:07:06.837Z,21.70
2019-01-21T22:09:38.151Z,20.67
2019-01-21T22:12:09.808Z,21.17
2019-01-21T22:14:40.812Z,20.30
2019-01-21T22:17:12.190Z,20.63
2019-01-21T22:19:44.075Z,20.67
2019-01-21T22:22:15.410Z,20.63
2019-01-21T22:24:46.951Z,20.50
2019-01-21T22:27:18.439Z,20.00
2019-01-21T22:29:49.687Z,20.57
2019-01-21T22:32:20.908Z,19.00
2019-01-21T22:34:52.234Z,19.87
2019-01-21T22:37:23.479Z,20.30
2019-01-21T22:39:54.466Z,19.83
2019-01-21T22:42:25.699Z,18.90
2019-01-21T22:44:57.251Z,18.37
2019-01-21T22:47:28.845Z,20.17
2019-01-21T22:50:01.089Z,20.77
2019-01-21T22:52:32.562Z,20.43
2019-01-21T22:55:04.134Z,19.63
2019-01-21T22:57:35.191Z,20.47
2019-01-21T23:00:18.747Z,21.10
2019-01-21T23:02:51.410Z,20.53
2019-01-21T23:05:22.760Z,20.00
2019-01-21T23:07:54.052Z,26.63
2019-01-21T23:10:25.449Z,22.77
2019-01-21T23:12:57.128Z,20.70
2019-01-21T23:15:28.451Z,21.33
2019-01-21T23:18:04.167Z,19.40
2019-01-21T23:20:32.811Z,19.70
2019-01-21T23:23:03.944Z,20.97
2019-01-21T23:25:35.416Z,20.53
2019-01-21T23:28:06.484Z,20.37
2019-01-21T23:30:38.208Z,21.17
2019-01-21T23:33:09.591Z,19.57
2019-01-21T23:35:41.198Z,21.80
2019-01-21T23:38:12.756Z,20.53
2019-01-21T23:40:44.151Z,21.87
2019-01-21T23:43:15.532Z,23.53
2019-01-21T23:45:46.855Z,21.03
2019-01-21T23:48:18.483Z,21.30
2019-01-21T23:50:49.815Z,21.87
2019-01-21T23:53:21.199Z,21.30
2019-01-21T23:55:52.523Z,20.03
2019-01-21T23:58:24.531Z,20.90
